Time;durP1;ratioP1;P1;durP2;ratioP2;P2;SDS_P1;SDS_P2;PMS_P1;PMS_P2;Temp;Humidity;BMP_temperature;BMP_pressure;BME280_temperature;BME280_humidity;BME280_pressure;Samples;Min_cycle;Max_cycle;Signal;HPM_P1;HPM_P2
2023/12/18 00:00:07;;;;;;;1.40;1.10;;;;;;;;;;5114872;28;20214;-78
2023/12/18 00:02:32;;;;;;;0.90;0.90;;;;;;;;;;5113402;28;20272;-78
2023/12/18 00:04:57;;;;;;;1.73;1.30;;;;;;;;;;5109241;28;20253;-78
2023/12/18 00:07:23;;;;;;;3.10;1.80;;;;;;;;;;5105867;28;20210;-78
2023/12/18 00:09:48;;;;;;;0.87;0.87;;;;;;;;;;5105813;28;20216;-78
2023/12/18 00:12:13;;;;;;;1.00;0.90;;;;;;;;;;5110574;28;20172;-78
2023/12/18 00:14:38;;;;;;;1.33;1.07;;;;;;;;;;5106940;28;20183;-78
2023/12/18 00:17:03;;;;;;;1.17;0.70;;;;;;;;;;5105376;28;20169;-78
2023/12/18 00:19:29;;;;;;;1.07;1.00;;;;;;;;;;5106699;28;20207;-78
2023/12/18 00:21:54;;;;;;;0.70;0.70;;;;;;;;;;5106883;28;20209;-78
2023/12/18 00:24:19;;;;;;;0.70;0.70;;;;;;;;;;5108275;28;20359;-78
2023/12/18 00:26:44;;;;;;;0.90;0.90;;;;;;;;;;5121005;27;20194;-78
2023/12/18 00:29:09;;;;;;;0.57;0.57;;;;;;;;;;5105029;27;20271;-78
2023/12/18 00:31:35;;;;;;;0.50;0.50;;;;;;;;;;5112934;27;20196;-78
2023/12/18 00:34:01;;;;;;;0.63;0.63;;;;;;;;;;5107157;27;20172;-78
2023/12/18 00:36:26;;;;;;;0.60;0.60;;;;;;;;;;5111578;27;20192;-78
2023/12/18 00:38:51;;;;;;;0.50;0.50;;;;;;;;;;5112298;27;20244;-78
2023/12/18 00:41:17;;;;;;;0.10;0.10;;;;;;;;;;5113657;27;20305;-78
2023/12/18 00:43:43;;;;;;;0.37;0.37;;;;;;;;;;5116302;27;20252;-78
2023/12/18 00:46:08;;;;;;;0.30;0.30;;;;;;;;;;5111369;27;20251;-78
2023/12/18 00:48:33;;;;;;;1.40;0.50;;;;;;;;;;5112316;27;20175;-78
2023/12/18 00:50:58;;;;;;;0.37;0.37;;;;;;;;;;5110929;27;20185;-78
2023/12/18 00:53:24;;;;;;;0.30;0.30;;;;;;;;;;5107809;27;20187;-78
2023/12/18 00:55:49;;;;;;;0.20;0.20;;;;;;;;;;5105417;28;20199;-78
2023/12/18 00:58:14;;;;;;;0.40;0.40;;;;;;;;;;5119274;27;20180;-78
2023/12/18 01:00:39;;;;;;;0.30;0.30;;;;;;;;;;5117032;27;20175;-78
2023/12/18 01:03:04;;;;;;;0.40;0.40;;;;;;;;;;5128914;27;20175;-78
2023/12/18 01:05:30;;;;;;;0.37;0.37;;;;;;;;;;5127295;27;20180;-78
2023/12/18 01:07:55;;;;;;;0.30;0.30;;;;;;;;;;5111675;27;20199;-78
2023/12/18 01:10:20;;;;;;;0.30;0.30;;;;;;;;;;5121925;27;20238;-78
2023/12/18 01:12:45;;;;;;;0.30;0.30;;;;;;;;;;5109988;27;20176;-77
2023/12/18 01:15:10;;;;;;;0.50;0.50;;;;;;;;;;5111250;27;20260;-78
2023/12/18 01:17:36;;;;;;;0.50;0.50;;;;;;;;;;5106571;28;20172;-78
2023/12/18 01:20:02;;;;;;;0.60;0.60;;;;;;;;;;5111196;27;20203;-78
2023/12/18 01:22:27;;;;;;;0.63;0.63;;;;;;;;;;5109754;27;20176;-78
2023/12/18 01:24:52;;;;;;;1.10;1.00;;;;;;;;;;5108023;27;20176;-78
2023/12/18 01:27:17;;;;;;;1.23;1.13;;;;;;;;;;5105058;27;20189;-78
2023/12/18 01:29:43;;;;;;;1.40;1.10;;;;;;;;;;5110818;27;20176;-78
2023/12/18 01:32:08;;;;;;;1.03;0.90;;;;;;;;;;5107795;27;20257;-78
2023/12/18 01:34:34;;;;;;;2.00;1.30;;;;;;;;;;5106738;27;20799;-78
2023/12/18 01:36:59;;;;;;;1.47;1.30;;;;;;;;;;5109798;27;20191;-78
2023/12/18 01:39:24;;;;;;;0.90;0.90;;;;;;;;;;5107387;27;20172;-78
2023/12/18 01:41:49;;;;;;;1.10;1.00;;;;;;;;;;5113213;27;20190;-78
2023/12/18 01:44:14;;;;;;;0.83;0.83;;;;;;;;;;5109542;27;20427;-78
2023/12/18 01:46:40;;;;;;;1.63;1.37;;;;;;;;;;5110783;27;20164;-78
2023/12/18 01:49:07;;;;;;;1.37;1.23;;;;;;;;;;5110526;27;20179;-78
2023/12/18 01:51:32;;;;;;;1.20;1.10;;;;;;;;;;5113664;27;20199;-78
2023/12/18 01:53:58;;;;;;;1.10;1.00;;;;;;;;;;5125307;27;20168;-78
2023/12/18 01:56:25;;;;;;;0.53;0.53;;;;;;;;;;5112274;27;20164;-78
2023/12/18 01:58:53;;;;;;;0.70;0.70;;;;;;;;;;5111298;27;20219;-78
2023/12/18 02:01:18;;;;;;;0.50;0.50;;;;;;;;;;5114034;27;20191;-78
2023/12/18 02:03:44;;;;;;;1.20;1.10;;;;;;;;;;5112848;27;20256;-78
2023/12/18 02:06:09;;;;;;;1.00;0.90;;;;;;;;;;5113983;27;20168;-78
2023/12/18 02:08:35;;;;;;;0.73;0.73;;;;;;;;;;5105975;27;20277;-78
2023/12/18 02:11:00;;;;;;;0.93;0.60;;;;;;;;;;5111257;27;20219;-78
2023/12/18 02:13:26;;;;;;;0.70;0.70;;;;;;;;;;5108338;27;20182;-78
2023/12/18 02:15:51;;;;;;;0.50;0.50;;;;;;;;;;5110159;27;20200;-77
2023/12/18 02:18:17;;;;;;;0.50;0.50;;;;;;;;;;5110589;27;20183;-78
2023/12/18 02:20:43;;;;;;;0.50;0.50;;;;;;;;;;5109852;27;20206;-78
2023/12/18 02:23:09;;;;;;;0.70;0.70;;;;;;;;;;5111165;27;20207;-78
2023/12/18 02:25:34;;;;;;;0.43;0.43;;;;;;;;;;5104211;28;20184;-78
2023/12/18 02:28:00;;;;;;;0.60;0.60;;;;;;;;;;5122417;27;20172;-78
2023/12/18 02:30:25;;;;;;;0.60;0.60;;;;;;;;;;5107323;28;20230;-78
2023/12/18 02:32:51;;;;;;;0.30;0.30;;;;;;;;;;5106515;27;20203;-78
2023/12/18 02:35:16;;;;;;;0.30;0.30;;;;;;;;;;5109184;27;20176;-78
2023/12/18 02:37:41;;;;;;;0.50;0.50;;;;;;;;;;5111967;27;20208;-77
2023/12/18 02:40:07;;;;;;;0.53;0.50;;;;;;;;;;5109518;27;20375;-78
2023/12/18 02:42:32;;;;;;;1.70;0.70;;;;;;;;;;5112304;27;20203;-77
2023/12/18 02:44:57;;;;;;;0.83;0.80;;;;;;;;;;5109977;27;20175;-78
2023/12/18 02:47:23;;;;;;;0.70;0.70;;;;;;;;;;5122741;27;20176;-78
2023/12/18 02:49:48;;;;;;;0.63;0.63;;;;;;;;;;5106575;27;20198;-78
2023/12/18 02:52:13;;;;;;;0.60;0.60;;;;;;;;;;5106380;27;20199;-78
2023/12/18 02:54:38;;;;;;;0.77;0.73;;;;;;;;;;5109138;27;20175;-78
2023/12/18 02:57:04;;;;;;;0.50;0.50;;;;;;;;;;5118072;27;20260;-78
2023/12/18 02:59:29;;;;;;;1.13;1.13;;;;;;;;;;5108534;27;20969;-78
2023/12/18 03:01:54;;;;;;;0.60;0.60;;;;;;;;;;5109853;27;20174;-78
2023/12/18 03:04:20;;;;;;;0.93;0.70;;;;;;;;;;5106286;28;20175;-78
2023/12/18 03:06:45;;;;;;;0.33;0.33;;;;;;;;;;5114543;27;20175;-78
2023/12/18 03:09:11;;;;;;;0.57;0.47;;;;;;;;;;5106021;28;20247;-78
2023/12/18 03:11:42;;;;;;;0.57;0.57;;;;;;;;;;5108239;27;20242;-78
2023/12/18 03:14:08;;;;;;;0.27;0.27;;;;;;;;;;5111676;27;20267;-78
2023/12/18 03:16:34;;;;;;;0.60;0.60;;;;;;;;;;5107166;27;20248;-78
2023/12/18 03:18:59;;;;;;;1.37;0.40;;;;;;;;;;5126204;27;20176;-78
2023/12/18 03:21:24;;;;;;;0.63;0.40;;;;;;;;;;5107882;28;20202;-78
2023/12/18 03:23:49;;;;;;;0.40;0.40;;;;;;;;;;5108438;28;20172;-78
2023/12/18 03:26:14;;;;;;;0.30;0.30;;;;;;;;;;5105374;28;20176;-77
2023/12/18 03:28:40;;;;;;;0.30;0.30;;;;;;;;;;5108922;28;20179;-78
2023/12/18 03:31:05;;;;;;;0.50;0.50;;;;;;;;;;5109816;28;20206;-78
2023/12/18 03:33:30;;;;;;;0.70;0.70;;;;;;;;;;5106167;28;20173;-78
2023/12/18 03:35:55;;;;;;;0.90;0.90;;;;;;;;;;5118846;27;20203;-78
2023/12/18 03:38:20;;;;;;;3.00;1.50;;;;;;;;;;5105121;28;20187;-78
2023/12/18 03:40:46;;;;;;;13.37;8.73;;;;;;;;;;5107554;28;20178;-78
2023/12/18 03:43:11;;;;;;;12.73;7.10;;;;;;;;;;5105025;28;20176;-78
2023/12/18 03:45:36;;;;;;;9.90;6.17;;;;;;;;;;5106361;28;20209;-78
2023/12/18 03:48:02;;;;;;;3.07;2.40;;;;;;;;;;5107861;28;20184;-78
2023/12/18 03:50:27;;;;;;;3.63;1.83;;;;;;;;;;5112211;28;20279;-78
2023/12/18 03:52:52;;;;;;;1.63;1.27;;;;;;;;;;5110235;28;20317;-78
2023/12/18 03:55:18;;;;;;;1.10;1.00;;;;;;;;;;5111941;28;20246;-78
2023/12/18 03:57:43;;;;;;;1.33;1.00;;;;;;;;;;5111782;28;20164;-78
2023/12/18 04:00:09;;;;;;;1.00;1.00;;;;;;;;;;5124578;27;20179;-77
2023/12/18 04:02:34;;;;;;;0.80;0.80;;;;;;;;;;5109446;28;20275;-77
2023/12/18 04:04:59;;;;;;;2.80;2.60;;;;;;;;;;5115023;27;20216;-78
2023/12/18 04:07:24;;;;;;;1.27;1.17;;;;;;;;;;5111887;27;20172;-78
2023/12/18 04:09:49;;;;;;;1.50;1.40;;;;;;;;;;5107174;28;20349;-78
2023/12/18 04:12:15;;;;;;;2.13;1.53;;;;;;;;;;5113453;27;20249;-78
2023/12/18 04:14:41;;;;;;;1.13;1.03;;;;;;;;;;5113291;27;20172;-78
2023/12/18 04:17:06;;;;;;;0.60;0.60;;;;;;;;;;5111279;28;20188;-78
2023/12/18 04:19:31;;;;;;;0.33;0.33;;;;;;;;;;5113159;27;20175;-78
2023/12/18 04:21:57;;;;;;;0.50;0.50;;;;;;;;;;5112512;27;20180;-78
2023/12/18 04:24:22;;;;;;;0.50;0.50;;;;;;;;;;5110659;27;20331;-78
2023/12/18 04:26:47;;;;;;;0.70;0.70;;;;;;;;;;5110184;27;20180;-78
2023/12/18 04:29:12;;;;;;;0.47;0.47;;;;;;;;;;5111941;27;20172;-77
2023/12/18 04:31:38;;;;;;;0.50;0.50;;;;;;;;;;5110949;27;20230;-77
2023/12/18 04:34:03;;;;;;;0.60;0.60;;;;;;;;;;5111070;27;20183;-77
2023/12/18 04:36:28;;;;;;;0.90;0.90;;;;;;;;;;5108310;27;20208;-77
2023/12/18 04:38:53;;;;;;;0.73;0.73;;;;;;;;;;5115289;27;20164;-77
2023/12/18 04:41:22;;;;;;;0.80;0.80;;;;;;;;;;5110060;27;20588;-77
2023/12/18 04:43:48;;;;;;;1.33;0.60;;;;;;;;;;5109652;27;20214;-77
2023/12/18 04:46:13;;;;;;;0.60;0.60;;;;;;;;;;5109917;27;20169;-77
2023/12/18 04:48:38;;;;;;;0.60;0.60;;;;;;;;;;5109578;27;20263;-77
2023/12/18 04:51:03;;;;;;;0.80;0.80;;;;;;;;;;5114809;27;20200;-78
2023/12/18 04:53:29;;;;;;;0.87;0.73;;;;;;;;;;5110592;27;20164;-78
2023/12/18 04:55:55;;;;;;;0.43;0.43;;;;;;;;;;5112277;27;20180;-77
2023/12/18 04:58:20;;;;;;;0.23;0.23;;;;;;;;;;5109437;27;20428;-77
2023/12/18 05:00:45;;;;;;;0.33;0.33;;;;;;;;;;5115957;27;20171;-77
2023/12/18 05:03:10;;;;;;;0.50;0.50;;;;;;;;;;5111610;27;20172;-77
2023/12/18 05:05:36;;;;;;;1.10;0.83;;;;;;;;;;5112769;27;20183;-77
2023/12/18 05:08:01;;;;;;;2.17;1.93;;;;;;;;;;5112894;27;20185;-77
2023/12/18 05:10:26;;;;;;;2.70;1.60;;;;;;;;;;5124656;27;20284;-77
2023/12/18 05:12:51;;;;;;;4.13;2.60;;;;;;;;;;5114935;27;20211;-77
2023/12/18 05:15:17;;;;;;;6.13;3.10;;;;;;;;;;5111772;27;20176;-77
2023/12/18 05:17:42;;;;;;;3.37;2.23;;;;;;;;;;5112596;27;20184;-77
2023/12/18 05:20:08;;;;;;;3.83;1.87;;;;;;;;;;5110105;27;20172;-78
2023/12/18 05:22:34;;;;;;;1.20;1.10;;;;;;;;;;5111269;27;20242;-77
2023/12/18 05:24:59;;;;;;;1.20;1.07;;;;;;;;;;5108594;27;20459;-77
2023/12/18 05:27:24;;;;;;;3.27;1.33;;;;;;;;;;5108444;27;20175;-77
2023/12/18 05:29:49;;;;;;;1.13;1.03;;;;;;;;;;5110801;27;20176;-77
2023/12/18 05:32:15;;;;;;;1.57;1.33;;;;;;;;;;5111697;27;20195;-77
2023/12/18 05:34:40;;;;;;;0.83;0.83;;;;;;;;;;5107696;27;20196;-77
2023/12/18 05:37:05;;;;;;;1.00;0.90;;;;;;;;;;5113190;27;20227;-77
2023/12/18 05:39:30;;;;;;;1.47;1.20;;;;;;;;;;5108944;27;20188;-78
2023/12/18 05:41:55;;;;;;;1.57;1.37;;;;;;;;;;5111177;27;20182;-77
2023/12/18 05:44:20;;;;;;;2.60;2.40;;;;;;;;;;5108803;27;20199;-77
2023/12/18 05:46:46;;;;;;;2.00;1.70;;;;;;;;;;5112275;27;20183;-77
2023/12/18 05:49:11;;;;;;;1.30;1.20;;;;;;;;;;5108044;27;20215;-77
2023/12/18 05:51:36;;;;;;;1.00;1.00;;;;;;;;;;5108063;27;20196;-77
2023/12/18 05:54:02;;;;;;;1.50;1.40;;;;;;;;;;5107840;28;20240;-77
2023/12/18 05:56:27;;;;;;;1.37;1.20;;;;;;;;;;5128002;27;20176;-77
2023/12/18 05:58:52;;;;;;;2.00;1.27;;;;;;;;;;5106799;27;20172;-77
2023/12/18 06:01:19;;;;;;;1.70;1.43;;;;;;;;;;5110397;27;20187;-77
2023/12/18 06:03:44;;;;;;;1.83;1.50;;;;;;;;;;5115874;27;20519;-77
2023/12/18 06:06:09;;;;;;;2.13;1.73;;;;;;;;;;5112532;27;20176;-77
2023/12/18 06:08:34;;;;;;;2.10;1.57;;;;;;;;;;5111104;27;20186;-77
2023/12/18 06:10:59;;;;;;;1.50;1.40;;;;;;;;;;5108927;27;20208;-77
2023/12/18 06:13:25;;;;;;;1.83;1.43;;;;;;;;;;5113940;27;20176;-77
2023/12/18 06:15:50;;;;;;;2.07;1.57;;;;;;;;;;5124590;27;20176;-77
2023/12/18 06:18:15;;;;;;;1.80;1.50;;;;;;;;;;5110134;27;20179;-77
2023/12/18 06:20:40;;;;;;;1.47;1.37;;;;;;;;;;5105215;27;20237;-77
2023/12/18 06:23:05;;;;;;;3.33;1.33;;;;;;;;;;5106853;28;20183;-77
2023/12/18 06:25:31;;;;;;;1.20;1.10;;;;;;;;;;5104419;28;20212;-77
2023/12/18 06:27:56;;;;;;;1.47;1.37;;;;;;;;;;5107353;27;20179;-77
2023/12/18 06:30:21;;;;;;;2.30;1.03;;;;;;;;;;5107269;27;20224;-77
2023/12/18 06:32:46;;;;;;;1.20;1.10;;;;;;;;;;5107976;27;20188;-77
2023/12/18 06:35:12;;;;;;;1.10;1.00;;;;;;;;;;5107907;28;20172;-78
2023/12/18 06:37:37;;;;;;;1.33;1.23;;;;;;;;;;5105770;27;20200;-77
2023/12/18 06:40:03;;;;;;;0.60;0.60;;;;;;;;;;5109614;27;20191;-77
2023/12/18 06:42:28;;;;;;;0.60;0.60;;;;;;;;;;5108488;27;20211;-77
2023/12/18 06:44:54;;;;;;;1.17;1.13;;;;;;;;;;5111922;27;20209;-78
2023/12/18 06:47:19;;;;;;;0.80;0.80;;;;;;;;;;5108686;27;20180;-76
2023/12/18 06:49:44;;;;;;;1.37;1.10;;;;;;;;;;5109513;27;20170;-78
2023/12/18 06:52:09;;;;;;;0.80;0.80;;;;;;;;;;5109587;27;20238;-77
2023/12/18 06:54:35;;;;;;;0.90;0.90;;;;;;;;;;5107841;28;20259;-77
2023/12/18 06:57:00;;;;;;;1.23;1.13;;;;;;;;;;5117368;27;20171;-77
2023/12/18 06:59:25;;;;;;;1.10;1.10;;;;;;;;;;5119219;27;20179;-77
2023/12/18 07:01:51;;;;;;;0.70;0.70;;;;;;;;;;5112913;27;20199;-77
2023/12/18 07:04:16;;;;;;;0.90;0.90;;;;;;;;;;5116995;27;20210;-77
2023/12/18 07:06:41;;;;;;;1.00;1.00;;;;;;;;;;5111213;27;20172;-77
2023/12/18 07:09:06;;;;;;;1.33;1.10;;;;;;;;;;5108941;27;20217;-77
2023/12/18 07:11:31;;;;;;;0.80;0.80;;;;;;;;;;5108218;27;20445;-77
2023/12/18 07:13:57;;;;;;;1.40;1.30;;;;;;;;;;5106969;27;20175;-77
2023/12/18 07:16:23;;;;;;;1.30;1.20;;;;;;;;;;5102814;27;20184;-77
2023/12/18 07:18:48;;;;;;;1.40;1.30;;;;;;;;;;5107764;27;20201;-78
2023/12/18 07:21:13;;;;;;;1.10;1.10;;;;;;;;;;5104789;27;20183;-77
2023/12/18 07:23:39;;;;;;;1.30;1.20;;;;;;;;;;5109062;27;20284;-78
2023/12/18 07:26:08;;;;;;;1.13;1.03;;;;;;;;;;5107164;28;20188;-77
2023/12/18 07:28:33;;;;;;;1.10;1.00;;;;;;;;;;5106121;28;20208;-77
2023/12/18 07:30:59;;;;;;;4.00;1.20;;;;;;;;;;5103814;28;20227;-77
2023/12/18 07:33:24;;;;;;;1.70;1.30;;;;;;;;;;5105344;28;20201;-77
2023/12/18 07:35:49;;;;;;;4.00;3.70;;;;;;;;;;5105966;28;20168;-77
2023/12/18 07:38:14;;;;;;;2.70;2.50;;;;;;;;;;5107322;28;20194;-77
2023/12/18 07:40:40;;;;;;;2.13;2.00;;;;;;;;;;5130666;27;20180;-77
2023/12/18 07:43:05;;;;;;;1.90;1.77;;;;;;;;;;5110579;27;20208;-77
2023/12/18 07:45:30;;;;;;;2.27;1.60;;;;;;;;;;5115404;27;20214;-77
2023/12/18 07:47:56;;;;;;;2.30;2.10;;;;;;;;;;5113342;27;20234;-78
2023/12/18 07:50:21;;;;;;;1.63;1.53;;;;;;;;;;5113531;27;20207;-78
2023/12/18 07:52:46;;;;;;;1.40;1.30;;;;;;;;;;5108616;27;20173;-77
2023/12/18 07:55:12;;;;;;;1.07;1.07;;;;;;;;;;5114441;27;20164;-78
2023/12/18 07:57:37;;;;;;;1.23;1.13;;;;;;;;;;5115542;27;20172;-77
2023/12/18 08:00:03;;;;;;;1.33;1.23;;;;;;;;;;5129871;27;20263;-77
2023/12/18 08:02:28;;;;;;;1.47;1.37;;;;;;;;;;5127037;27;20176;-77
2023/12/18 08:04:54;;;;;;;1.10;1.03;;;;;;;;;;5119809;27;20268;-77
2023/12/18 08:07:19;;;;;;;1.30;1.20;;;;;;;;;;5110266;28;20187;-78
2023/12/18 08:09:44;;;;;;;1.53;1.43;;;;;;;;;;5112398;27;20319;-77
2023/12/18 08:12:10;;;;;;;1.30;1.20;;;;;;;;;;5111222;27;20199;-78
2023/12/18 08:14:35;;;;;;;2.83;1.30;;;;;;;;;;5112927;27;20206;-76
2023/12/18 08:17:01;;;;;;;1.20;1.10;;;;;;;;;;5108975;28;20187;-76
2023/12/18 08:19:26;;;;;;;0.70;0.70;;;;;;;;;;5110530;27;20193;-77
2023/12/18 08:21:51;;;;;;;1.43;0.77;;;;;;;;;;5111755;27;20175;-77
2023/12/18 08:24:17;;;;;;;1.47;1.37;;;;;;;;;;5108957;27;20186;-76
2023/12/18 08:26:45;;;;;;;2.17;1.13;;;;;;;;;;5128027;27;20176;-77
2023/12/18 08:29:10;;;;;;;1.33;1.23;;;;;;;;;;5112227;27;20176;-77
2023/12/18 08:31:37;;;;;;;0.90;0.90;;;;;;;;;;5109732;27;20250;-78
2023/12/18 08:34:02;;;;;;;4.20;3.00;;;;;;;;;;5101481;27;20168;-78
2023/12/18 08:36:29;;;;;;;1.40;1.20;;;;;;;;;;5108627;28;20202;-77
2023/12/18 08:38:55;;;;;;;0.90;0.90;;;;;;;;;;5110420;27;20195;-77
2023/12/18 08:41:20;;;;;;;1.10;0.80;;;;;;;;;;5107492;27;20463;-77
2023/12/18 08:43:45;;;;;;;1.17;1.00;;;;;;;;;;5111153;27;20442;-76
2023/12/18 08:46:11;;;;;;;0.90;0.90;;;;;;;;;;5113509;27;20177;-77
2023/12/18 08:48:36;;;;;;;0.90;0.90;;;;;;;;;;5104212;28;20183;-77
2023/12/18 08:51:01;;;;;;;1.20;0.83;;;;;;;;;;5111044;27;20196;-76
2023/12/18 08:53:26;;;;;;;0.67;0.67;;;;;;;;;;5123715;27;20172;-77
2023/12/18 08:55:51;;;;;;;1.10;0.70;;;;;;;;;;5111679;27;20164;-77
2023/12/18 08:58:17;;;;;;;0.90;0.90;;;;;;;;;;5105144;27;20171;-77
2023/12/18 09:00:43;;;;;;;0.70;0.70;;;;;;;;;;5115604;27;20205;-76
2023/12/18 09:03:08;;;;;;;1.53;1.00;;;;;;;;;;5112103;27;20172;-77
2023/12/18 09:05:33;;;;;;;0.70;0.70;;;;;;;;;;5110722;27;20267;-77
2023/12/18 09:08:00;;;;;;;6.37;4.20;;;;;;;;;;5104039;27;20176;-76
2023/12/18 09:10:25;;;;;;;1.27;1.17;;;;;;;;;;5122840;27;20232;-77
2023/12/18 09:12:53;;;;;;;0.93;0.93;;;;;;;;;;5140532;27;20172;-77
2023/12/18 09:15:18;;;;;;;1.07;1.07;;;;;;;;;;5117914;27;20196;-76
2023/12/18 09:17:43;;;;;;;2.23;0.60;;;;;;;;;;5114106;27;20175;-77
2023/12/18 09:20:09;;;;;;;2.03;1.50;;;;;;;;;;5129716;27;20171;-77
2023/12/18 09:22:35;;;;;;;5.30;2.47;;;;;;;;;;5112076;27;20427;-78
2023/12/18 09:25:00;;;;;;;1.70;1.60;;;;;;;;;;5115421;27;20185;-77
2023/12/18 09:27:25;;;;;;;1.50;1.20;;;;;;;;;;5119765;27;20184;-77
2023/12/18 09:29:51;;;;;;;1.53;1.33;;;;;;;;;;5123607;27;20179;-77
2023/12/18 09:32:16;;;;;;;1.70;1.40;;;;;;;;;;5134882;27;20390;-77
2023/12/18 09:34:41;;;;;;;1.00;1.00;;;;;;;;;;5128666;27;20172;-77
2023/12/18 09:37:06;;;;;;;1.33;1.20;;;;;;;;;;5133844;27;20223;-77
2023/12/18 09:39:32;;;;;;;1.23;1.13;;;;;;;;;;5113771;27;20206;-76
2023/12/18 09:42:01;;;;;;;0.87;0.87;;;;;;;;;;5134225;27;20185;-76
2023/12/18 09:44:26;;;;;;;1.00;1.00;;;;;;;;;;5136636;27;20170;-76
2023/12/18 09:46:52;;;;;;;1.37;1.10;;;;;;;;;;5130241;27;20185;-76
2023/12/18 09:49:18;;;;;;;4.33;4.13;;;;;;;;;;5118409;27;20179;-76
2023/12/18 09:51:44;;;;;;;0.90;0.90;;;;;;;;;;5119316;27;20188;-76
2023/12/18 09:54:10;;;;;;;0.80;0.80;;;;;;;;;;5114719;27;20264;-76
2023/12/18 09:56:36;;;;;;;1.00;0.97;;;;;;;;;;5106652;27;20264;-76
2023/12/18 09:59:02;;;;;;;2.50;1.03;;;;;;;;;;5134678;27;20215;-76
2023/12/18 10:01:28;;;;;;;1.40;1.17;;;;;;;;;;5133582;27;20174;-76
2023/12/18 10:03:53;;;;;;;1.03;0.90;;;;;;;;;;5116106;27;20188;-76
2023/12/18 10:06:19;;;;;;;1.10;0.90;;;;;;;;;;5134756;27;20182;-76
2023/12/18 10:08:44;;;;;;;1.20;1.07;;;;;;;;;;5137959;27;20313;-76
2023/12/18 10:11:22;;;;;;;0.80;0.80;;;;;;;;;;5132476;27;20194;-76
2023/12/18 10:13:48;;;;;;;1.20;1.10;;;;;;;;;;5128132;27;20169;-76
2023/12/18 10:16:15;;;;;;;1.00;1.00;;;;;;;;;;5119736;27;20206;-76
2023/12/18 10:18:40;;;;;;;1.00;0.83;;;;;;;;;;5134247;27;20438;-76
2023/12/18 10:21:05;;;;;;;0.93;0.90;;;;;;;;;;5116810;27;20269;-76
2023/12/18 10:23:35;;;;;;;0.93;0.93;;;;;;;;;;5126095;27;20208;-76
2023/12/18 10:26:02;;;;;;;0.73;0.73;;;;;;;;;;5129187;27;20164;-76
2023/12/18 10:28:27;;;;;;;0.50;0.50;;;;;;;;;;5130501;27;20206;-76
2023/12/18 10:30:53;;;;;;;0.83;0.70;;;;;;;;;;5117436;27;20225;-76
2023/12/18 10:33:18;;;;;;;0.70;0.70;;;;;;;;;;5141564;27;20169;-76
2023/12/18 10:35:44;;;;;;;1.10;0.93;;;;;;;;;;5117335;27;20203;-76
2023/12/18 10:38:10;;;;;;;1.40;1.20;;;;;;;;;;5120091;27;20174;-76
2023/12/18 10:40:36;;;;;;;1.53;1.40;;;;;;;;;;5120872;27;20174;-76
2023/12/18 10:43:04;;;;;;;2.53;1.20;;;;;;;;;;5132129;27;20184;-76
2023/12/18 10:45:30;;;;;;;1.50;1.40;;;;;;;;;;5116187;27;20201;-76
2023/12/18 10:47:55;;;;;;;1.70;1.60;;;;;;;;;;5135289;27;20213;-77
2023/12/18 10:50:21;;;;;;;3.27;1.50;;;;;;;;;;5136905;27;20182;-76
2023/12/18 10:52:47;;;;;;;0.80;0.80;;;;;;;;;;5118734;27;20177;-76
2023/12/18 10:55:16;;;;;;;1.23;1.13;;;;;;;;;;5127730;27;20203;-76
2023/12/18 10:57:42;;;;;;;1.40;1.10;;;;;;;;;;5131758;27;20159;-76
2023/12/18 11:00:08;;;;;;;1.13;1.03;;;;;;;;;;5132641;27;20185;-77
2023/12/18 11:02:34;;;;;;;0.70;0.70;;;;;;;;;;5127173;27;20225;-76
2023/12/18 11:04:59;;;;;;;0.50;0.50;;;;;;;;;;5131373;27;20180;-76
2023/12/18 11:07:26;;;;;;;3.40;0.60;;;;;;;;;;5135110;27;20196;-76
2023/12/18 11:09:53;;;;;;;7.37;4.27;;;;;;;;;;5114558;27;20219;-76
2023/12/18 11:12:20;;;;;;;1.83;1.63;;;;;;;;;;5114319;27;20195;-77
2023/12/18 11:14:54;;;;;;;3.63;2.70;;;;;;;;;;5125962;27;20502;-70
2023/12/18 11:17:32;;;;;;;1.80;1.70;;;;;;;;;;5129742;27;20200;-69
2023/12/18 11:20:04;;;;;;;2.03;1.50;;;;;;;;;;5131212;27;20186;-68
2023/12/18 11:22:40;;;;;;;3.00;1.60;;;;;;;;;;5109332;27;20169;-76
2023/12/18 11:25:06;;;;;;;1.90;1.47;;;;;;;;;;5109481;27;20220;-76
2023/12/18 11:27:31;;;;;;;3.20;1.27;;;;;;;;;;5133134;27;20185;-76
2023/12/18 11:29:56;;;;;;;1.40;1.10;;;;;;;;;;5128994;27;20270;-77
2023/12/18 11:32:51;;;;;;;1.50;1.40;;;;;;;;;;5115882;27;20421;-76
2023/12/18 11:35:20;;;;;;;1.57;1.30;;;;;;;;;;5113849;27;20180;-76
2023/12/18 11:37:47;;;;;;;1.50;1.30;;;;;;;;;;5119511;27;20202;-76
2023/12/18 11:40:36;;;;;;;1.37;1.27;;;;;;;;;;5130507;27;20172;-76
2023/12/18 11:43:02;;;;;;;1.37;1.27;;;;;;;;;;5120177;28;20184;-76
2023/12/18 11:45:28;;;;;;;1.30;1.20;;;;;;;;;;5134567;27;20176;-76
2023/12/18 11:47:54;;;;;;;1.23;1.13;;;;;;;;;;5115756;28;20171;-76
2023/12/18 11:50:21;;;;;;;8.23;2.03;;;;;;;;;;5115425;27;20179;-76
2023/12/18 11:52:48;;;;;;;1.70;1.00;;;;;;;;;;5134836;27;20180;-76
2023/12/18 11:55:16;;;;;;;3.70;3.40;;;;;;;;;;5133456;27;20227;-76
2023/12/18 11:57:43;;;;;;;6.83;1.60;;;;;;;;;;5127310;27;20216;-76
2023/12/18 12:00:09;;;;;;;1.70;1.57;;;;;;;;;;5112947;27;20168;-76
2023/12/18 12:02:34;;;;;;;1.30;1.20;;;;;;;;;;5120451;28;20172;-76
2023/12/18 12:05:00;;;;;;;1.30;1.20;;;;;;;;;;5111469;28;20176;-76
2023/12/18 12:07:25;;;;;;;0.70;0.70;;;;;;;;;;5130435;27;20182;-76
2023/12/18 12:09:57;;;;;;;1.17;1.07;;;;;;;;;;5112787;27;20211;-75
2023/12/18 12:12:23;;;;;;;1.10;1.00;;;;;;;;;;5136097;27;20191;-76
2023/12/18 12:14:48;;;;;;;1.00;0.90;;;;;;;;;;5112604;27;20172;-76
2023/12/18 12:17:18;;;;;;;1.23;1.10;;;;;;;;;;5127469;27;20171;-76
2023/12/18 12:19:44;;;;;;;16.00;2.20;;;;;;;;;;5134097;27;20188;-76
2023/12/18 12:22:09;;;;;;;2.30;1.00;;;;;;;;;;5118628;27;20168;-76
2023/12/18 12:24:37;;;;;;;5.40;1.40;;;;;;;;;;5109900;27;20199;-76
2023/12/18 12:27:02;;;;;;;1.30;1.20;;;;;;;;;;5126055;27;20183;-72
2023/12/18 12:29:29;;;;;;;4.40;2.00;;;;;;;;;;5114205;27;20179;-72
2023/12/18 12:31:54;;;;;;;1.93;1.83;;;;;;;;;;5127320;27;20203;-72
2023/12/18 12:34:20;;;;;;;2.20;1.83;;;;;;;;;;5111149;27;20185;-72
2023/12/18 12:36:45;;;;;;;1.90;1.67;;;;;;;;;;5130772;27;20192;-72
2023/12/18 12:39:10;;;;;;;3.03;2.37;;;;;;;;;;5131263;27;20168;-72
2023/12/18 12:41:36;;;;;;;1.80;1.47;;;;;;;;;;5111928;27;20180;-72
2023/12/18 12:44:01;;;;;;;2.73;2.33;;;;;;;;;;5130161;27;20168;-72
2023/12/18 12:46:27;;;;;;;2.17;1.97;;;;;;;;;;5128798;27;20204;-72
2023/12/18 12:48:52;;;;;;;1.70;1.60;;;;;;;;;;5128202;27;20281;-72
2023/12/18 12:51:17;;;;;;;1.93;1.73;;;;;;;;;;5131607;27;20259;-72
2023/12/18 12:53:43;;;;;;;2.07;1.83;;;;;;;;;;5107206;27;20556;-72
2023/12/18 12:56:09;;;;;;;2.30;2.10;;;;;;;;;;5129847;27;20226;-72
2023/12/18 12:58:34;;;;;;;2.53;2.10;;;;;;;;;;5129530;27;20172;-72
2023/12/18 13:01:01;;;;;;;2.60;1.70;;;;;;;;;;5120695;27;20189;-72
2023/12/18 13:03:27;;;;;;;1.80;1.70;;;;;;;;;;5109723;27;20192;-72
2023/12/18 13:05:52;;;;;;;4.80;1.87;;;;;;;;;;5126283;27;20172;-72
2023/12/18 13:08:18;;;;;;;1.73;1.60;;;;;;;;;;5125518;27;20175;-72
2023/12/18 13:10:43;;;;;;;1.67;1.50;;;;;;;;;;5125754;27;20223;-72
2023/12/18 13:13:09;;;;;;;2.37;1.97;;;;;;;;;;5130452;27;20172;-72
2023/12/18 13:15:35;;;;;;;4.10;2.03;;;;;;;;;;5113845;27;20183;-72
2023/12/18 13:18:00;;;;;;;2.10;1.90;;;;;;;;;;5130277;27;20171;-72
2023/12/18 13:20:26;;;;;;;1.40;1.30;;;;;;;;;;5112306;27;20172;-72
2023/12/18 13:22:51;;;;;;;2.20;1.93;;;;;;;;;;5111365;27;20183;-72
2023/12/18 13:25:17;;;;;;;2.00;1.60;;;;;;;;;;5107602;27;20441;-72
2023/12/18 13:27:42;;;;;;;2.00;1.73;;;;;;;;;;5125644;27;20178;-72
2023/12/18 13:30:10;;;;;;;4.60;2.10;;;;;;;;;;5106996;27;20181;-72
2023/12/18 13:32:36;;;;;;;1.60;1.50;;;;;;;;;;5109812;27;20203;-72
2023/12/18 13:35:01;;;;;;;2.07;1.80;;;;;;;;;;5127788;27;20173;-72
2023/12/18 13:37:26;;;;;;;1.83;1.60;;;;;;;;;;5113076;27;20212;-71
2023/12/18 13:39:52;;;;;;;2.53;1.73;;;;;;;;;;5130824;27;20170;-71
2023/12/18 13:42:17;;;;;;;2.30;2.10;;;;;;;;;;5124761;27;20180;-71
2023/12/18 13:44:42;;;;;;;1.70;1.60;;;;;;;;;;5127012;27;20237;-72
2023/12/18 13:47:07;;;;;;;2.60;2.00;;;;;;;;;;5124866;27;20305;-72
2023/12/18 13:49:33;;;;;;;2.63;2.23;;;;;;;;;;5110429;27;20204;-72
2023/12/18 13:51:58;;;;;;;5.73;3.93;;;;;;;;;;5129608;27;20232;-71
2023/12/18 13:54:23;;;;;;;2.33;2.10;;;;;;;;;;5111187;27;20275;-72
2023/12/18 13:56:48;;;;;;;1.80;1.70;;;;;;;;;;5107069;27;20180;-71
2023/12/18 13:59:14;;;;;;;2.30;2.10;;;;;;;;;;5132037;27;20186;-71
2023/12/18 14:01:40;;;;;;;2.63;1.73;;;;;;;;;;5111003;27;20192;-71
2023/12/18 14:04:06;;;;;;;2.27;2.07;;;;;;;;;;5122005;27;20178;-72
2023/12/18 14:06:31;;;;;;;3.20;1.83;;;;;;;;;;5108551;27;20186;-72
2023/12/18 14:08:57;;;;;;;3.37;2.07;;;;;;;;;;5118468;27;20260;-71
2023/12/18 14:11:22;;;;;;;4.70;2.17;;;;;;;;;;5105966;27;20201;-71
2023/12/18 14:13:47;;;;;;;1.80;1.70;;;;;;;;;;5124390;27;20181;-71
2023/12/18 14:16:12;;;;;;;2.30;2.10;;;;;;;;;;5129511;27;20184;-71
2023/12/18 14:18:38;;;;;;;2.07;1.80;;;;;;;;;;5121730;27;20265;-72
2023/12/18 14:21:03;;;;;;;2.47;2.13;;;;;;;;;;5120408;27;20614;-71
2023/12/18 14:23:28;;;;;;;1.80;1.70;;;;;;;;;;5127482;27;20218;-72
2023/12/18 14:25:54;;;;;;;2.80;2.13;;;;;;;;;;5123053;27;20192;-71
2023/12/18 14:28:19;;;;;;;2.47;2.27;;;;;;;;;;5110086;27;20251;-72
2023/12/18 14:30:45;;;;;;;8.97;2.53;;;;;;;;;;5126997;27;20198;-72
2023/12/18 14:33:10;;;;;;;2.57;2.30;;;;;;;;;;5111010;27;20171;-72